Time;durP1;ratioP1;P1;durP2;ratioP2;P2;SDS_P1;SDS_P2;PMS_P1;PMS_P2;Temp;Humidity;BMP_temperature;BMP_pressure;BME280_temperature;BME280_humidity;BME280_pressure;Samples;Min_cycle;Max_cycle;Signal;HPM_P1;HPM_P2
2024/01/03 00:01:03;;;;;;;9.65;1.35;;;9.00;99.90;;;;;;5136925;27;20109;-66
2024/01/03 00:03:31;;;;;;;6.20;0.63;;;9.00;99.90;;;;;;5137376;27;20490;-67
2024/01/03 00:05:59;;;;;;;6.45;1.20;;;9.00;99.90;;;;;;5106018;28;20050;-66
2024/01/03 00:08:29;;;;;;;8.25;1.05;;;9.00;99.90;;;;;;5103524;27;20044;-67
2024/01/03 00:10:58;;;;;;;8.57;1.02;;;8.90;99.90;;;;;;5105653;27;20122;-67
2024/01/03 00:13:33;;;;;;;11.90;0.95;;;8.90;99.90;;;;;;5105820;27;20050;-67
2024/01/03 00:16:01;;;;;;;6.75;1.20;;;8.90;99.90;;;;;;5131614;27;20496;-67
2024/01/03 00:18:38;;;;;;;6.60;1.95;;;9.00;99.90;;;;;;5103980;28;20491;-67
2024/01/03 00:21:05;;;;;;;5.60;0.90;;;8.90;99.90;;;;;;5100153;28;20858;-67
2024/01/03 00:23:38;;;;;;;9.38;1.55;;;8.90;99.90;;;;;;5103107;28;20043;-67
2024/01/03 00:26:13;;;;;;;6.63;0.90;;;8.80;99.90;;;;;;5136224;27;20043;-66
2024/01/03 00:28:40;;;;;;;7.47;0.95;;;8.80;99.90;;;;;;5132948;27;20032;-67
2024/01/03 00:31:09;;;;;;;10.48;2.13;;;8.80;99.90;;;;;;5104768;28;20094;-67
2024/01/03 00:33:41;;;;;;;5.78;0.85;;;8.80;99.90;;;;;;5100545;28;20079;-67
2024/01/03 00:36:11;;;;;;;10.43;1.63;;;8.70;99.90;;;;;;5101161;28;20051;-67
2024/01/03 00:38:38;;;;;;;5.35;0.90;;;8.70;99.90;;;;;;5102045;28;20067;-67
2024/01/03 00:41:04;;;;;;;8.13;0.98;;;8.70;99.90;;;;;;5098059;28;20067;-67
2024/01/03 00:43:30;;;;;;;5.40;1.15;;;8.70;99.90;;;;;;5103222;28;20446;-67
2024/01/03 00:45:56;;;;;;;10.02;0.95;;;8.60;99.90;;;;;;5102174;28;20071;-67
2024/01/03 00:48:22;;;;;;;6.95;1.38;;;8.60;99.90;;;;;;5098903;28;20379;-67
2024/01/03 00:50:48;;;;;;;9.45;1.48;;;8.60;99.90;;;;;;5105227;28;20030;-67
2024/01/03 00:53:15;;;;;;;7.85;1.25;;;8.60;99.90;;;;;;5133064;27;20481;-67
2024/01/03 00:55:42;;;;;;;8.68;1.33;;;8.60;99.90;;;;;;5104536;28;20058;-67
2024/01/03 00:58:09;;;;;;;9.23;1.10;;;8.60;99.90;;;;;;5131679;27;20047;-67
2024/01/03 01:00:36;;;;;;;20.75;1.95;;;8.60;99.90;;;;;;5100780;28;20053;-67
2024/01/03 01:03:03;;;;;;;10.18;1.25;;;8.50;99.90;;;;;;5102604;28;20039;-67
2024/01/03 01:05:29;;;;;;;11.98;1.73;;;8.50;99.90;;;;;;5099765;28;20054;-67
2024/01/03 01:07:54;;;;;;;8.38;1.30;;;8.50;99.90;;;;;;5099960;28;20039;-67
2024/01/03 01:10:20;;;;;;;6.95;1.27;;;8.50;99.90;;;;;;5101126;28;20086;-67
2024/01/03 01:12:46;;;;;;;12.18;1.02;;;8.50;99.90;;;;;;5103890;28;20043;-67
2024/01/03 01:15:12;;;;;;;10.20;1.33;;;8.50;99.90;;;;;;5082229;27;1493166;-67
2024/01/03 01:17:37;;;;;;;5.50;1.17;;;8.50;99.90;;;;;;5102161;28;20047;-67
2024/01/03 01:20:04;;;;;;;8.10;1.38;;;8.50;99.90;;;;;;5103599;27;20044;-67
2024/01/03 01:22:30;;;;;;;4.95;1.13;;;8.50;99.90;;;;;;5102181;27;20044;-67
2024/01/03 01:24:56;;;;;;;10.27;1.83;;;8.50;99.90;;;;;;5105147;27;20500;-67
2024/01/03 01:27:21;;;;;;;8.80;1.23;;;8.50;99.90;;;;;;5101424;27;20047;-67
2024/01/03 01:29:48;;;;;;;6.38;1.00;;;8.50;99.90;;;;;;5104035;28;20044;-67
2024/01/03 01:32:13;;;;;;;10.35;1.40;;;8.50;99.90;;;;;;5103029;27;20706;-67
2024/01/03 01:34:39;;;;;;;4.90;0.90;;;8.50;99.90;;;;;;5102625;27;20040;-67
2024/01/03 01:37:05;;;;;;;8.82;1.08;;;8.50;99.90;;;;;;5102219;27;20058;-67
2024/01/03 01:39:30;;;;;;;6.80;1.10;;;8.60;99.90;;;;;;5103712;27;20115;-67
2024/01/03 01:41:56;;;;;;;5.95;1.05;;;8.60;99.90;;;;;;5104038;28;20036;-67
2024/01/03 01:44:22;;;;;;;10.93;1.15;;;8.60;99.90;;;;;;5102754;27;20043;-67
2024/01/03 01:46:48;;;;;;;7.75;0.75;;;8.60;99.90;;;;;;5105856;28;20040;-67
2024/01/03 01:49:16;;;;;;;6.22;0.60;;;8.60;99.90;;;;;;5100165;27;20051;-67
2024/01/03 01:51:43;;;;;;;9.93;1.20;;;9.10;99.90;;;;;;5099969;28;20044;-67
2024/01/03 01:54:09;;;;;;;11.35;1.38;;;8.90;99.90;;;;;;5104484;27;20497;-67
2024/01/03 01:56:35;;;;;;;8.43;1.88;;;8.60;99.90;;;;;;5103760;27;20044;-67
2024/01/03 01:59:01;;;;;;;10.95;2.38;;;8.70;99.90;;;;;;5104689;27;20036;-67
2024/01/03 02:01:29;;;;;;;6.97;1.15;;;8.60;99.90;;;;;;5098931;27;20038;-67
2024/01/03 02:03:55;;;;;;;6.28;1.13;;;8.70;99.90;;;;;;5135083;27;20059;-67
2024/01/03 02:06:21;;;;;;;6.75;1.00;;;8.60;99.90;;;;;;5103592;27;20032;-67
2024/01/03 02:08:47;;;;;;;3.80;0.82;;;8.70;99.90;;;;;;5099632;27;20040;-67
2024/01/03 02:11:13;;;;;;;4.20;1.48;;;8.70;99.90;;;;;;5098989;27;20048;-67
2024/01/03 02:13:42;;;;;;;9.05;0.88;;;8.70;99.90;;;;;;5099720;27;20043;-67
2024/01/03 02:16:08;;;;;;;15.75;2.13;;;8.80;99.90;;;;;;5086329;28;20043;-67
2024/01/03 02:18:34;;;;;;;12.48;2.08;;;8.80;99.90;;;;;;5099713;27;20414;-67
2024/01/03 02:21:01;;;;;;;6.07;1.02;;;8.80;99.90;;;;;;5101938;27;20069;-67
2024/01/03 02:23:27;;;;;;;5.00;0.68;;;8.90;99.90;;;;;;5131503;27;20043;-67
2024/01/03 02:25:52;;;;;;;7.18;0.65;;;8.90;99.90;;;;;;5102996;27;20043;-67
2024/01/03 02:28:18;;;;;;;6.65;1.00;;;8.90;99.90;;;;;;5103434;27;20042;-67
2024/01/03 02:30:45;;;;;;;4.55;0.57;;;8.90;99.90;;;;;;5131096;27;20477;-67
2024/01/03 02:33:11;;;;;;;3.30;1.10;;;9.30;99.90;;;;;;5100197;27;20144;-67
2024/01/03 02:35:37;;;;;;;2.40;0.40;;;8.90;99.90;;;;;;5100819;28;20548;-67
2024/01/03 02:38:03;;;;;;;2.03;0.40;;;9.00;99.90;;;;;;5098292;28;20044;-66
2024/01/03 02:40:29;;;;;;;4.93;0.43;;;9.00;99.90;;;;;;5088000;28;20043;-67
2024/01/03 02:42:55;;;;;;;2.65;0.55;;;9.00;99.90;;;;;;5099510;28;20063;-67
2024/01/03 02:45:20;;;;;;;5.50;1.02;;;9.00;99.90;;;;;;5104234;28;20039;-67
2024/01/03 02:47:46;;;;;;;3.22;0.35;;;9.00;99.90;;;;;;5101837;27;20024;-67
2024/01/03 02:50:11;;;;;;;3.75;0.43;;;9.00;99.90;;;;;;5101510;28;20096;-67
2024/01/03 02:52:37;;;;;;;2.08;0.50;;;9.00;99.90;;;;;;5102100;28;20032;-67
2024/01/03 02:55:03;;;;;;;5.35;0.40;;;9.00;99.90;;;;;;5101500;28;20478;-67
2024/01/03 02:57:29;;;;;;;5.20;0.60;;;9.10;99.90;;;;;;5101214;28;20491;-67
2024/01/03 02:59:54;;;;;;;7.47;0.45;;;9.00;99.90;;;;;;5099430;28;20075;-67
2024/01/03 03:02:20;;;;;;;4.43;0.70;;;9.00;99.90;;;;;;5084916;28;20071;-67
2024/01/03 03:04:46;;;;;;;3.85;0.60;;;9.20;99.90;;;;;;5102753;28;20043;-67
2024/01/03 03:07:11;;;;;;;2.55;0.40;;;8.90;99.90;;;;;;5099274;28;20035;-67
2024/01/03 03:09:37;;;;;;;3.00;0.38;;;8.80;99.90;;;;;;5136065;27;20478;-67
2024/01/03 03:12:03;;;;;;;3.88;0.38;;;8.80;99.90;;;;;;5098916;28;20036;-67
2024/01/03 03:14:28;;;;;;;2.97;0.20;;;8.70;99.90;;;;;;5103204;28;20192;-67
2024/01/03 03:16:54;;;;;;;1.15;0.20;;;8.70;99.90;;;;;;5135348;27;20047;-67
2024/01/03 03:19:20;;;;;;;3.50;0.50;;;8.70;99.90;;;;;;5099134;28;20047;-67
2024/01/03 03:21:45;;;;;;;3.63;0.68;;;8.70;99.90;;;;;;5103625;28;20138;-67
2024/01/03 03:24:11;;;;;;;2.50;0.20;;;8.70;99.90;;;;;;5097340;28;20078;-67
2024/01/03 03:26:37;;;;;;;0.70;0.20;;;8.70;99.90;;;;;;5134786;27;20611;-67
2024/01/03 03:29:02;;;;;;;2.20;0.20;;;9.40;99.90;;;;;;5099451;28;20136;-67
2024/01/03 03:31:28;;;;;;;2.00;0.43;;;8.60;99.90;;;;;;5098214;28;20522;-67
2024/01/03 03:33:53;;;;;;;2.70;0.30;;;8.60;99.90;;;;;;5134911;27;20067;-67
2024/01/03 03:36:21;;;;;;;3.30;0.30;;;8.50;99.90;;;;;;5099891;28;20054;-67
2024/01/03 03:38:47;;;;;;;4.28;0.40;;;8.70;99.90;;;;;;5100750;28;20063;-67
2024/01/03 03:41:12;;;;;;;1.95;0.20;;;8.60;99.90;;;;;;5099030;28;20064;-67
2024/01/03 03:43:39;;;;;;;2.28;0.25;;;8.60;99.90;;;;;;5104128;28;20113;-67
2024/01/03 03:46:09;;;;;;;1.45;0.20;;;8.50;99.90;;;;;;5103576;28;20062;-67
2024/01/03 03:48:34;;;;;;;3.85;0.52;;;8.60;99.90;;;;;;5100513;28;20521;-67
2024/01/03 03:51:01;;;;;;;3.08;0.30;;;8.50;99.90;;;;;;5133583;27;20154;-67
2024/01/03 03:53:27;;;;;;;2.63;0.20;;;8.50;99.90;;;;;;5100233;28;20133;-67
2024/01/03 03:55:53;;;;;;;2.92;0.50;;;8.50;99.90;;;;;;5100167;28;20513;-67
2024/01/03 03:58:18;;;;;;;3.72;0.30;;;8.50;99.90;;;;;;5103126;28;20491;-67
2024/01/03 04:00:44;;;;;;;1.52;0.32;;;8.40;99.90;;;;;;5101397;28;20066;-67
2024/01/03 04:03:10;;;;;;;2.60;0.38;;;8.60;99.90;;;;;;5130487;27;20039;-67
2024/01/03 04:05:36;;;;;;;2.35;0.30;;;8.50;99.90;;;;;;5098328;28;20043;-67
2024/01/03 04:08:03;;;;;;;1.45;0.25;;;8.40;99.90;;;;;;5104388;28;20044;-67
2024/01/03 04:10:28;;;;;;;6.93;0.68;;;8.50;99.90;;;;;;5102869;27;20542;-67
2024/01/03 04:12:55;;;;;;;8.25;0.80;;;8.60;99.90;;;;;;5104908;27;20073;-67
2024/01/03 04:15:22;;;;;;;8.75;1.13;;;8.50;99.90;;;;;;5105006;27;20083;-67
2024/01/03 04:17:48;;;;;;;13.48;1.85;;;8.60;99.90;;;;;;5101894;27;20039;-67
2024/01/03 04:20:13;;;;;;;18.38;1.98;;;8.60;99.90;;;;;;5103559;27;20370;-67
2024/01/03 04:22:42;;;;;;;20.48;2.85;;;8.60;99.90;;;;;;5103087;27;20071;-67
2024/01/03 04:25:08;;;;;;;31.17;4.38;;;8.70;99.90;;;;;;5107495;28;20109;-67
2024/01/03 04:27:35;;;;;;;23.38;3.45;;;8.70;99.90;;;;;;5101626;27;20055;-67
2024/01/03 04:30:01;;;;;;;25.33;3.75;;;8.70;99.90;;;;;;5100293;27;21783;-67
2024/01/03 04:32:27;;;;;;;19.25;3.05;;;8.70;99.90;;;;;;5104756;27;20036;-67
2024/01/03 04:34:53;;;;;;;13.43;3.10;;;8.80;99.90;;;;;;5135172;27;20131;-67
2024/01/03 04:37:18;;;;;;;23.45;5.38;;;8.80;99.90;;;;;;5089366;28;20048;-67
2024/01/03 04:39:44;;;;;;;25.67;3.50;;;8.90;99.90;;;;;;5134918;27;20039;-67
2024/01/03 04:42:10;;;;;;;20.83;3.45;;;8.90;99.90;;;;;;5135454;27;20132;-67
2024/01/03 04:44:36;;;;;;;16.60;3.08;;;9.00;99.90;;;;;;5105131;27;20161;-67
2024/01/03 04:47:02;;;;;;;19.63;3.13;;;9.00;99.90;;;;;;5103115;27;20032;-67
2024/01/03 04:49:28;;;;;;;17.15;2.92;;;9.00;99.90;;;;;;5136703;27;20069;-66
2024/01/03 04:51:54;;;;;;;16.67;3.05;;;9.10;99.90;;;;;;5101195;27;20050;-67
2024/01/03 04:54:20;;;;;;;23.38;3.60;;;9.10;99.90;;;;;;5104578;27;20043;-67
2024/01/03 04:56:46;;;;;;;16.65;3.22;;;9.10;99.90;;;;;;5102273;28;20122;-67
2024/01/03 04:59:12;;;;;;;24.02;4.22;;;9.20;99.90;;;;;;5099958;27;20040;-67
2024/01/03 05:01:39;;;;;;;23.27;4.20;;;9.10;99.90;;;;;;5135927;27;20036;-67
2024/01/03 05:04:05;;;;;;;22.13;3.28;;;9.20;99.90;;;;;;5136517;27;20048;-67
2024/01/03 05:06:31;;;;;;;22.10;3.58;;;9.20;99.90;;;;;;5103070;28;20118;-67
2024/01/03 05:08:57;;;;;;;21.45;3.65;;;9.20;99.90;;;;;;5101779;27;20048;-67
2024/01/03 05:11:22;;;;;;;22.35;3.95;;;9.20;99.90;;;;;;5105301;27;20126;-67
2024/01/03 05:13:48;;;;;;;18.92;3.28;;;9.40;99.90;;;;;;5102226;27;20032;-67
2024/01/03 05:16:14;;;;;;;21.83;3.97;;;9.30;99.90;;;;;;5102217;27;20542;-67
2024/01/03 05:18:40;;;;;;;20.55;3.00;;;9.30;99.90;;;;;;5103636;27;20024;-67
2024/01/03 05:21:06;;;;;;;20.58;3.58;;;9.30;99.90;;;;;;5099602;27;20074;-67
2024/01/03 05:23:32;;;;;;;22.35;3.03;;;9.30;99.90;;;;;;5134187;27;20055;-67
2024/01/03 05:25:58;;;;;;;19.10;2.80;;;9.30;99.90;;;;;;5133978;27;20068;-67
2024/01/03 05:28:23;;;;;;;17.65;2.97;;;9.60;99.90;;;;;;5103210;28;20089;-67
2024/01/03 05:30:49;;;;;;;19.85;2.95;;;9.40;99.90;;;;;;5103317;27;20497;-67
2024/01/03 05:33:15;;;;;;;22.38;3.53;;;9.40;99.90;;;;;;5104711;27;20118;-67
2024/01/03 05:35:40;;;;;;;17.67;2.90;;;9.40;99.90;;;;;;5137460;27;20036;-67
2024/01/03 05:38:06;;;;;;;16.27;2.80;;;9.40;99.90;;;;;;5102053;27;20050;-67
2024/01/03 05:40:32;;;;;;;17.08;2.80;;;9.40;99.90;;;;;;5132739;27;20181;-67
2024/01/03 05:42:58;;;;;;;17.27;3.55;;;9.40;99.90;;;;;;5102744;27;20472;-67
2024/01/03 05:45:24;;;;;;;20.20;2.47;;;9.30;99.90;;;;;;5101858;27;20123;-67
2024/01/03 05:47:50;;;;;;;19.90;3.53;;;9.40;99.90;;;;;;5103071;27;20046;-67
2024/01/03 05:50:16;;;;;;;22.35;3.60;;;9.30;99.90;;;;;;5101047;27;20043;-67
2024/01/03 05:52:42;;;;;;;19.92;3.25;;;9.40;99.90;;;;;;5100207;28;20043;-67
2024/01/03 05:55:08;;;;;;;21.88;2.75;;;9.40;99.90;;;;;;5105741;27;20093;-67
2024/01/03 05:57:34;;;;;;;18.10;3.45;;;9.40;99.90;;;;;;5101548;27;20038;-67
2024/01/03 06:00:01;;;;;;;14.57;3.08;;;9.40;99.90;;;;;;5135130;27;20112;-67
2024/01/03 06:02:27;;;;;;;16.83;4.28;;;9.50;99.90;;;;;;5105032;27;20088;-67
2024/01/03 06:04:52;;;;;;;19.83;2.88;;;9.40;99.90;;;;;;5104200;27;20040;-66
2024/01/03 06:07:18;;;;;;;14.32;3.35;;;9.40;99.90;;;;;;5098874;27;20031;-67
2024/01/03 06:09:44;;;;;;;19.05;2.92;;;9.40;99.90;;;;;;5101131;28;20169;-67
2024/01/03 06:12:10;;;;;;;13.18;2.90;;;9.40;99.90;;;;;;5102653;28;20426;-67
2024/01/03 06:14:35;;;;;;;14.60;2.70;;;9.40;99.90;;;;;;5098679;27;20165;-67
2024/01/03 06:17:01;;;;;;;14.70;2.70;;;9.50;99.90;;;;;;5099213;28;20482;-67
2024/01/03 06:19:27;;;;;;;11.20;2.38;;;9.40;99.90;;;;;;5097693;27;20075;-67
2024/01/03 06:21:53;;;;;;;13.18;1.92;;;9.40;99.90;;;;;;5097300;27;20047;-67
2024/01/03 06:24:18;;;;;;;9.85;2.50;;;9.40;99.90;;;;;;5099567;27;20051;-67
2024/01/03 06:26:44;;;;;;;10.82;2.55;;;9.50;99.90;;;;;;5134211;27;20032;-67
2024/01/03 06:29:10;;;;;;;8.25;1.58;;;9.40;99.90;;;;;;5135448;27;20068;-67
2024/01/03 06:31:35;;;;;;;6.82;1.02;;;9.40;99.90;;;;;;5098226;27;20038;-67
2024/01/03 06:34:01;;;;;;;7.20;1.13;;;9.50;99.90;;;;;;5098781;27;20382;-67
2024/01/03 06:36:27;;;;;;;8.82;1.30;;;9.40;99.90;;;;;;5100651;28;20512;-66
2024/01/03 06:38:52;;;;;;;7.07;1.00;;;9.60;99.90;;;;;;5101490;27;20035;-67
2024/01/03 06:41:18;;;;;;;8.55;1.30;;;9.40;99.90;;;;;;5118955;27;20169;-67
2024/01/03 06:43:45;;;;;;;13.25;1.95;;;9.40;99.90;;;;;;5134311;27;20081;-67
2024/01/03 06:46:10;;;;;;;11.82;2.75;;;9.40;99.90;;;;;;5100994;28;20040;-67
2024/01/03 06:48:36;;;;;;;13.35;1.92;;;9.40;99.90;;;;;;5131107;27;20050;-67
2024/01/03 06:51:03;;;;;;;15.68;3.17;;;9.40;99.90;;;;;;5103065;27;20042;-67
2024/01/03 06:53:30;;;;;;;19.27;2.83;;;9.40;99.90;;;;;;5133214;27;20108;-67
2024/01/03 06:55:56;;;;;;;20.15;2.78;;;9.40;99.90;;;;;;5096371;27;20044;-66
2024/01/03 06:58:22;;;;;;;13.30;3.20;;;9.40;99.90;;;;;;5097676;28;20040;-66
2024/01/03 07:00:48;;;;;;;16.77;2.58;;;9.30;99.90;;;;;;5102008;27;20078;-67
2024/01/03 07:03:15;;;;;;;10.43;2.10;;;9.40;99.90;;;;;;5099249;28;20054;-67
2024/01/03 07:05:41;;;;;;;16.23;3.13;;;9.30;99.90;;;;;;5100893;27;20126;-67
2024/01/03 07:08:07;;;;;;;16.52;2.90;;;9.30;99.90;;;;;;5101831;28;20040;-67
2024/01/03 07:10:33;;;;;;;16.77;3.70;;;9.30;99.90;;;;;;5100904;28;20039;-67
2024/01/03 07:12:59;;;;;;;14.60;2.30;;;9.20;99.90;;;;;;5097845;28;20043;-67
2024/01/03 07:15:26;;;;;;;15.80;2.75;;;9.40;99.90;;;;;;5098788;28;20074;-67
2024/01/03 07:17:52;;;;;;;18.25;3.55;;;9.20;99.90;;;;;;5101662;28;20499;-67
2024/01/03 07:20:18;;;;;;;17.23;2.53;;;9.20;99.90;;;;;;5101630;28;20040;-67
2024/01/03 07:22:44;;;;;;;20.65;2.67;;;9.20;99.90;;;;;;5106100;28;20054;-67
2024/01/03 07:25:10;;;;;;;8.77;1.88;;;9.20;99.90;;;;;;5099356;28;20953;-67
2024/01/03 07:27:35;;;;;;;15.20;2.60;;;9.20;99.90;;;;;;5101854;28;20036;-67
2024/01/03 07:30:01;;;;;;;10.40;2.05;;;9.30;99.90;;;;;;5098681;28;20071;-66
2024/01/03 07:32:27;;;;;;;12.52;1.75;;;9.30;99.90;;;;;;5131514;27;20043;-67
2024/01/03 07:34:53;;;;;;;13.68;2.28;;;9.20;99.90;;;;;;5102665;28;20972;-66
2024/01/03 07:37:18;;;;;;;10.95;1.77;;;9.30;99.90;;;;;;5101220;28;20049;-67
2024/01/03 07:39:44;;;;;;;14.07;2.67;;;9.30;99.90;;;;;;5102211;28;20465;-67
2024/01/03 07:42:10;;;;;;;8.43;1.90;;;9.30;99.90;;;;;;5132033;27;20130;-67
2024/01/03 07:44:41;;;;;;;7.35;1.52;;;9.30;99.90;;;;;;5134456;27;20040;-67
2024/01/03 07:47:11;;;;;;;6.53;0.90;;;9.20;99.90;;;;;;5106716;27;20053;-67
2024/01/03 07:49:39;;;;;;;7.68;1.15;;;9.20;99.90;;;;;;5100827;27;20035;-67
2024/01/03 07:52:05;;;;;;;8.95;0.95;;;9.10;99.90;;;;;;5104055;27;20031;-67
2024/01/03 07:54:31;;;;;;;5.75;0.85;;;9.00;99.90;;;;;;5103646;27;20557;-67
2024/01/03 07:56:57;;;;;;;8.00;1.20;;;9.00;99.90;;;;;;5105176;27;20123;-67
2024/01/03 07:59:24;;;;;;;13.75;1.52;;;8.90;99.90;;;;;;5101150;27;20045;-67
2024/01/03 08:01:50;;;;;;;10.93;1.63;;;8.90;99.90;;;;;;5105876;27;20039;-67
2024/01/03 08:04:19;;;;;;;13.25;3.53;;;8.80;99.90;;;;;;5107012;27;20577;-67
2024/01/03 08:06:44;;;;;;;11.02;1.92;;;8.80;99.90;;;;;;5104246;27;20052;-67
2024/01/03 08:09:10;;;;;;;11.05;1.65;;;8.80;99.90;;;;;;5105636;27;20039;-67
2024/01/03 08:11:36;;;;;;;10.75;1.40;;;8.90;99.90;;;;;;5101699;27;20067;-67
2024/01/03 08:14:02;;;;;;;12.07;1.98;;;8.80;99.90;;;;;;5103778;27;20046;-67
2024/01/03 08:16:28;;;;;;;11.80;1.58;;;8.80;99.90;;;;;;5104469;27;20040;-67
2024/01/03 08:18:54;;;;;;;12.07;2.42;;;8.80;99.90;;;;;;5116355;27;20050;-67
2024/01/03 08:21:20;;;;;;;9.35;1.70;;;8.80;99.90;;;;;;5103580;27;20562;-67
2024/01/03 08:23:45;;;;;;;12.68;1.77;;;8.80;99.90;;;;;;5101598;27;20044;-67
2024/01/03 08:26:12;;;;;;;16.55;2.65;;;8.90;99.90;;;;;;5106553;28;20134;-67
2024/01/03 08:28:40;;;;;;;10.98;1.80;;;8.80;99.90;;;;;;5100985;27;20647;-67
2024/01/03 08:31:07;;;;;;;14.93;2.00;;;8.90;99.90;;;;;;5102120;27;20383;-67
2024/01/03 08:33:36;;;;;;;16.30;2.50;;;8.90;99.90;;;;;;5103275;27;20042;-67
2024/01/03 08:36:02;;;;;;;12.85;2.80;;;8.90;99.90;;;;;;5104268;27;20047;-67
2024/01/03 08:38:28;;;;;;;16.10;2.53;;;8.80;99.90;;;;;;5106106;27;20097;-67
2024/01/03 08:40:54;;;;;;;14.57;1.98;;;8.80;99.90;;;;;;5103610;27;20035;-67
2024/01/03 08:43:20;;;;;;;11.80;2.30;;;8.80;99.90;;;;;;5105107;27;20039;-67
2024/01/03 08:45:45;;;;;;;12.93;1.52;;;8.90;99.90;;;;;;5102896;27;20048;-67
2024/01/03 08:48:11;;;;;;;8.75;1.50;;;8.90;99.90;;;;;;5103702;27;20028;-66
2024/01/03 08:50:37;;;;;;;15.35;2.03;;;9.00;99.90;;;;;;5107369;27;20084;-67
2024/01/03 08:53:03;;;;;;;14.68;2.17;;;9.00;99.90;;;;;;5105350;27;20157;-67
2024/01/03 08:55:29;;;;;;;13.30;2.85;;;9.00;99.90;;;;;;5104678;27;20323;-67
2024/01/03 08:57:56;;;;;;;10.52;1.60;;;9.00;99.90;;;;;;5103712;27;20038;-67
2024/01/03 09:00:24;;;;;;;14.68;2.35;;;9.10;99.90;;;;;;5105229;27;20050;-67
2024/01/03 09:02:50;;;;;;;9.65;1.50;;;9.10;99.90;;;;;;5102551;27;20101;-67
2024/01/03 09:05:18;;;;;;;7.88;1.42;;;9.40;99.90;;;;;;5100090;27;20130;-67
2024/01/03 09:07:45;;;;;;;11.63;1.73;;;9.10;99.90;;;;;;5120076;27;20039;-67
2024/01/03 09:10:10;;;;;;;10.57;1.42;;;9.10;99.90;;;;;;5119052;27;20039;-67
2024/01/03 09:12:36;;;;;;;9.70;1.92;;;9.10;99.90;;;;;;5105877;27;20500;-67
2024/01/03 09:15:02;;;;;;;10.40;2.38;;;9.20;99.90;;;;;;5133345;27;20090;-67
2024/01/03 09:17:28;;;;;;;13.55;2.95;;;9.20;99.90;;;;;;5105270;27;20039;-67
2024/01/03 09:19:53;;;;;;;13.57;1.77;;;9.30;99.90;;;;;;5102160;27;20051;-67
2024/01/03 09:22:19;;;;;;;13.85;3.35;;;9.30;99.90;;;;;;5089663;28;20047;-67
2024/01/03 09:24:45;;;;;;;15.32;2.28;;;9.30;99.90;;;;;;5102698;27;20849;-67
2024/01/03 09:27:11;;;;;;;12.30;2.28;;;9.30;99.90;;;;;;5102626;27;20036;-67
2024/01/03 09:29:37;;;;;;;13.80;2.80;;;9.30;99.90;;;;;;5103249;27;21127;-67
2024/01/03 09:32:03;;;;;;;13.10;2.88;;;9.40;99.90;;;;;;5101779;27;20034;-67
2024/01/03 09:34:29;;;;;;;14.90;2.13;;;9.30;99.90;;;;;;5099383;28;20048;-67
2024/01/03 09:36:54;;;;;;;11.93;1.83;;;9.50;99.90;;;;;;5104536;27;21128;-67
2024/01/03 09:39:20;;;;;;;12.77;2.67;;;9.40;99.90;;;;;;5096755;28;20146;-66
2024/01/03 09:41:47;;;;;;;12.80;1.63;;;9.40;99.90;;;;;;5135423;27;20043;-67
2024/01/03 09:44:13;;;;;;;10.63;1.85;;;9.40;99.90;;;;;;5105382;27;20401;-67
2024/01/03 09:46:39;;;;;;;8.95;1.23;;;9.40;99.90;;;;;;5102759;27;20048;-67
2024/01/03 09:49:05;;;;;;;12.48;1.48;;;9.50;99.90;;;;;;5101752;27;20043;-67
2024/01/03 09:51:31;;;;;;;10.32;1.80;;;9.50;99.90;;;;;;5135427;27;20136;-67
2024/01/03 09:53:57;;;;;;;9.27;1.38;;;9.60;99.90;;;;;;5100227;27;20035;-67
2024/01/03 09:56:23;;;;;;;10.10;1.65;;;9.60;99.90;;;;;;5101072;27;20039;-67
2024/01/03 09:58:49;;;;;;;11.15;1.73;;;9.60;99.90;;;;;;5100954;27;20028;-67
2024/01/03 10:01:14;;;;;;;13.07;1.50;;;9.70;99.90;;;;;;5101687;27;20023;-67
2024/01/03 10:03:40;;;;;;;9.15;1.55;;;9.70;99.90;;;;;;5100143;27;20046;-67
2024/01/03 10:06:13;;;;;;;8.40;1.23;;;9.70;99.90;;;;;;5102226;27;20039;-67
2024/01/03 10:08:39;;;;;;;10.98;1.27;;;9.70;99.90;;;;;;5103314;27;20130;-67
2024/01/03 10:11:20;;;;;;;9.95;1.52;;;9.70;99.90;;;;;;5130573;27;20036;-67
2024/01/03 10:13:50;;;;;;;9.20;2.85;;;9.80;99.90;;;;;;5082784;28;20470;-67
2024/01/03 10:16:27;;;;;;;7.68;1.88;;;9.80;99.90;;;;;;5136096;27;20058;-67
2024/01/03 10:19:10;;;;;;;9.45;2.45;;;9.90;99.90;;;;;;5100445;28;20043;-67
2024/01/03 10:21:50;;;;;;;8.38;1.25;;;9.80;99.90;;;;;;5100305;28;20127;-67
2024/01/03 10:24:17;;;;;;;6.22;0.82;;;9.90;99.90;;;;;;5101679;27;20047;-67
2024/01/03 10:26:43;;;;;;;9.63;1.33;;;9.90;99.90;;;;;;5131979;27;20032;-67
2024/01/03 10:29:14;;;;;;;10.13;1.80;;;10.00;99.90;;;;;;5131400;27;20048;-67
2024/01/03 10:31:40;;;;;;;14.63;3.60;;;10.00;99.90;;;;;;5134014;27;20075;-67
2024/01/03 10:34:15;;;;;;;7.57;1.55;;;10.00;99.90;;;;;;5103687;27;20114;-67
2024/01/03 10:37:00;;;;;;;15.10;2.72;;;10.00;99.90;;;;;;5102696;27;20035;-67
2024/01/03 10:39:28;;;;;;;10.55;1.40;;;10.10;99.90;;;;;;5100331;28;20139;-67
2024/01/03 10:41:54;;;;;;;12.07;1.63;;;10.00;99.90;;;;;;5105469;28;20028;-67
2024/01/03 10:44:21;;;;;;;13.90;2.55;;;10.10;99.90;;;;;;5101258;28;20051;-67
2024/01/03 10:46:48;;;;;;;15.07;2.38;;;10.00;99.90;;;;;;5101249;28;20470;-67
2024/01/03 10:49:15;;;;;;;15.82;1.83;;;10.00;99.90;;;;;;5098749;28;20071;-67
2024/01/03 10:51:42;;;;;;;11.98;2.72;;;10.00;99.90;;;;;;5131980;27;20070;-67
2024/01/03 10:54:11;;;;;;;11.18;1.83;;;9.90;99.90;;;;;;5102351;28;20439;-67
2024/01/03 10:56:37;;;;;;;12.45;2.03;;;9.80;99.90;;;;;;5102008;27;20584;-67
2024/01/03 10:59:04;;;;;;;15.50;2.75;;;9.90;99.90;;;;;;5098917;28;20031;-67
2024/01/03 11:01:44;;;;;;;17.25;2.28;;;9.90;99.90;;;;;;5102642;28;20508;-67
2024/01/03 11:04:18;;;;;;;11.63;2.35;;;9.90;99.90;;;;;;5100741;27;20039;-67
2024/01/03 11:07:05;;;;;;;14.98;2.75;;;10.00;99.90;;;;;;5101594;28;20490;-67
2024/01/03 11:09:31;;;;;;;15.13;3.05;;;10.00;99.90;;;;;;5099291;28;20038;-67
2024/01/03 11:12:10;;;;;;;11.85;2.30;;;10.10;99.90;;;;;;5103269;28;20408;-67
2024/01/03 11:14:36;;;;;;;10.75;2.65;;;10.10;99.90;;;;;;5102879;28;20502;-67
2024/01/03 11:17:03;;;;;;;13.35;3.13;;;10.20;99.90;;;;;;5104096;27;20047;-67
2024/01/03 11:19:33;;;;;;;14.38;3.03;;;10.30;99.90;;;;;;5105896;27;20040;-67
2024/01/03 11:22:02;;;;;;;16.58;3.75;;;10.30;99.90;;;;;;5105395;28;20302;-67
2024/01/03 11:24:28;;;;;;;16.05;4.13;;;10.30;99.90;;;;;;5103747;27;20051;-66
2024/01/03 11:29:48;;;;;;;18.90;3.92;;;10.20;99.90;;;;;;5104187;27;20080;-67
2024/01/03 11:32:36;;;;;;;18.52;4.25;;;10.20;99.90;;;;;;5109064;28;20038;-67
2024/01/03 11:35:04;;;;;;;16.55;3.80;;;10.20;99.90;;;;;;5104983;28;20050;-67
2024/01/03 11:37:29;;;;;;;12.63;3.35;;;10.10;99.90;;;;;;5101504;27;20051;-67
2024/01/03 11:39:59;;;;;;;26.75;3.90;;;10.20;99.90;;;;;;5115436;27;20039;-66
2024/01/03 11:42:38;;;;;;;16.85;3.08;;;10.10;99.90;;;;;;5102502;27;20053;-66
2024/01/03 11:45:17;;;;;;;14.80;3.10;;;10.10;99.90;;;;;;5104027;27;20401;-67
2024/01/03 11:47:44;;;;;;;15.13;3.05;;;10.20;99.90;;;;;;5118894;27;20094;-67
2024/01/03 11:50:19;;;;;;;18.50;3.17;;;10.00;99.90;;;;;;5102779;27;20043;-67
2024/01/03 11:52:47;;;;;;;20.23;4.10;;;10.00;99.90;;;;;;5134032;27;20055;-67
2024/01/03 11:55:16;;;;;;;18.02;3.30;;;10.00;99.90;;;;;;5103048;27;20097;-67
2024/01/03 11:57:49;;;;;;;17.90;3.58;;;9.90;99.90;;;;;;5101714;27;20474;-67
2024/01/03 12:00:17;;;;;;;16.80;3.40;;;9.90;99.90;;;;;;5105261;27;20119;-67
2024/01/03 12:02:56;;;;;;;21.48;3.10;;;9.80;99.90;;;;;;5103292;28;20451;-67
2024/01/03 12:05:27;;;;;;;16.30;2.38;;;9.70;99.90;;;;;;5103268;28;20055;-67
2024/01/03 12:07:57;;;;;;;13.63;2.38;;;9.60;99.90;;;;;;5089448;28;20136;-67
2024/01/03 12:10:24;;;;;;;8.40;2.25;;;9.70;99.90;;;;;;5101598;27;20046;-67
2024/01/03 12:12:53;;;;;;;16.38;2.25;;;9.60;99.90;;;;;;5107242;27;20062;-67
2024/01/03 12:15:28;;;;;;;8.80;1.70;;;9.60;99.90;;;;;;5134564;27;20052;-67
2024/01/03 12:18:02;;;;;;;11.73;1.60;;;9.60;99.90;;;;;;5105444;28;20051;-67
2024/01/03 12:20:28;;;;;;;14.38;2.30;;;9.60;99.90;;;;;;5100709;28;20040;-67
2024/01/03 12:23:04;;;;;;;16.35;2.10;;;9.50;99.90;;;;;;5102907;28;20406;-67
2024/01/03 12:25:31;;;;;;;11.77;1.83;;;9.70;99.90;;;;;;5124382;27;20052;-67
2024/01/03 12:27:57;;;;;;;10.55;2.25;;;9.50;99.90;;;;;;5101499;28;20031;-67
2024/01/03 12:30:23;;;;;;;14.75;2.20;;;9.50;99.90;;;;;;5135936;27;20061;-67
2024/01/03 12:32:50;;;;;;;17.67;2.25;;;9.10;99.90;;;;;;5089705;28;20593;-67
2024/01/03 12:35:16;;;;;;;20.38;2.55;;;9.60;99.90;;;;;;5104540;28;20035;-67
2024/01/03 12:37:46;;;;;;;17.40;2.42;;;9.60;99.90;;;;;;5137241;27;20054;-67
2024/01/03 12:40:16;;;;;;;19.77;3.45;;;9.60;99.90;;;;;;5104699;28;20075;-67
2024/01/03 12:42:43;;;;;;;15.20;2.45;;;9.60;99.90;;;;;;5136961;27;20452;-67
2024/01/03 12:45:10;;;;;;;20.58;2.53;;;9.50;99.90;;;;;;5102691;28;20115;-67
2024/01/03 12:47:36;;;;;;;14.48;3.00;;;9.60;99.90;;;;;;5103485;27;21036;-67
2024/01/03 12:50:01;;;;;;;16.50;2.45;;;9.60;99.90;;;;;;5105073;28;20035;-67
2024/01/03 12:52:30;;;;;;;16.00;2.55;;;9.60;99.90;;;;;;5134907;27;20035;-67